sensor_id;sensor_type;location;lat;lon;timestamp;temperature;humidity
4107;DHT22;21906;50.812;7.132;2022-07-12T00:01:31;17.70;74.40
4107;DHT22;21906;50.812;7.132;2022-07-12T00:03:56;17.70;74.30
4107;DHT22;21906;50.812;7.132;2022-07-12T00:06:22;17.70;74.30
4107;DHT22;21906;50.812;7.132;2022-07-12T00:08:48;17.70;74.50
4107;DHT22;21906;50.812;7.132;2022-07-12T00:11:14;17.60;74.50
4107;DHT22;21906;50.812;7.132;2022-07-12T00:13:39;17.70;74.50
4107;DHT22;21906;50.812;7.132;2022-07-12T00:16:05;17.60;74.40
4107;DHT22;21906;50.812;7.132;2022-07-12T00:18:31;17.60;74.50
4107;DHT22;21906;50.812;7.132;2022-07-12T00:20:57;17.60;74.50
4107;DHT22;21906;50.812;7.132;2022-07-12T00:23:23;17.60;74.50
4107;DHT22;21906;50.812;7.132;2022-07-12T00:25:49;17.50;74.50
4107;DHT22;21906;50.812;7.132;2022-07-12T00:28:14;17.50;74.50
4107;DHT22;21906;50.812;7.132;2022-07-12T00:30:41;17.50;74.60
4107;DHT22;21906;50.812;7.132;2022-07-12T00:33:06;17.50;74.40
4107;DHT22;21906;50.812;7.132;2022-07-12T00:35:32;17.50;74.40
4107;DHT22;21906;50.812;7.132;2022-07-12T00:37:58;17.40;74.30
4107;DHT22;21906;50.812;7.132;2022-07-12T00:40:23;17.40;74.30
4107;DHT22;21906;50.812;7.132;2022-07-12T00:42:49;17.40;74.20
4107;DHT22;21906;50.812;7.132;2022-07-12T00:45:15;17.40;74.30
4107;DHT22;21906;50.812;7.132;2022-07-12T00:47:45;17.40;74.10
4107;DHT22;21906;50.812;7.132;2022-07-12T00:52:45;17.40;74.20
4107;DHT22;21906;50.812;7.132;2022-07-12T00:55:11;17.40;74.20
4107;DHT22;21906;50.812;7.132;2022-07-12T00:57:39;17.30;74.30
4107;DHT22;21906;50.812;7.132;2022-07-12T01:00:07;17.20;74.40
4107;DHT22;21906;50.812;7.132;2022-07-12T01:02:35;17.20;74.50
4107;DHT22;21906;50.812;7.132;2022-07-12T01:05:01;17.10;74.60
4107;DHT22;21906;50.812;7.132;2022-07-12T01:07:29;17.10;74.60
4107;DHT22;21906;50.812;7.132;2022-07-12T01:09:55;17.10;74.60
4107;DHT22;21906;50.812;7.132;2022-07-12T01:12:22;17.10;74.30
4107;DHT22;21906;50.812;7.132;2022-07-12T01:14:49;17.00;74.10
4107;DHT22;21906;50.812;7.132;2022-07-12T01:17:23;17.00;74.40
4107;DHT22;21906;50.812;7.132;2022-07-12T01:19:49;16.90;74.50
4107;DHT22;21906;50.812;7.132;2022-07-12T01:22:17;16.90;74.50
4107;DHT22;21906;50.812;7.132;2022-07-12T01:24:44;16.90;74.50
4107;DHT22;21906;50.812;7.132;2022-07-12T01:27:13;16.90;74.50
4107;DHT22;21906;50.812;7.132;2022-07-12T01:29:39;16.90;74.50
4107;DHT22;21906;50.812;7.132;2022-07-12T01:32:06;16.90;74.50
4107;DHT22;21906;50.812;7.132;2022-07-12T01:34:56;16.90;74.40
4107;DHT22;21906;50.812;7.132;2022-07-12T01:37:25;16.80;74.50
4107;DHT22;21906;50.812;7.132;2022-07-12T01:39:53;16.80;74.70
4107;DHT22;21906;50.812;7.132;2022-07-12T01:42:20;16.80;74.80
4107;DHT22;21906;50.812;7.132;2022-07-12T01:44:46;16.80;74.80
4107;DHT22;21906;50.812;7.132;2022-07-12T01:47:13;16.80;74.90
4107;DHT22;21906;50.812;7.132;2022-07-12T01:49:38;16.70;74.80
4107;DHT22;21906;50.812;7.132;2022-07-12T01:52:04;16.70;74.80
4107;DHT22;21906;50.812;7.132;2022-07-12T01:54:30;16.70;74.80
4107;DHT22;21906;50.812;7.132;2022-07-12T01:56:56;16.60;74.80
4107;DHT22;21906;50.812;7.132;2022-07-12T01:59:22;16.60;74.80
4107;DHT22;21906;50.812;7.132;2022-07-12T02:01:48;16.60;74.80
4107;DHT22;21906;50.812;7.132;2022-07-12T02:04:18;16.50;74.90
4107;DHT22;21906;50.812;7.132;2022-07-12T02:06:44;16.40;75.20
4107;DHT22;21906;50.812;7.132;2022-07-12T02:09:11;16.50;75.00
4107;DHT22;21906;50.812;7.132;2022-07-12T02:11:37;16.50;75.00
4107;DHT22;21906;50.812;7.132;2022-07-12T02:14:03;16.50;74.70
4107;DHT22;21906;50.812;7.132;2022-07-12T02:16:28;16.40;74.60
4107;DHT22;21906;50.812;7.132;2022-07-12T02:18:54;16.50;74.50
4107;DHT22;21906;50.812;7.132;2022-07-12T02:21:20;16.40;74.50
4107;DHT22;21906;50.812;7.132;2022-07-12T02:23:45;16.40;74.50
4107;DHT22;21906;50.812;7.132;2022-07-12T02:26:11;16.40;74.40
4107;DHT22;21906;50.812;7.132;2022-07-12T02:28:36;16.40;74.50
4107;DHT22;21906;50.812;7.132;2022-07-12T02:31:02;16.40;74.50
4107;DHT22;21906;50.812;7.132;2022-07-12T02:33:28;16.40;74.50
4107;DHT22;21906;50.812;7.132;2022-07-12T02:35:53;16.40;74.50
4107;DHT22;21906;50.812;7.132;2022-07-12T02:38:19;16.40;74.50
4107;DHT22;21906;50.812;7.132;2022-07-12T02:40:47;16.30;74.40
4107;DHT22;21906;50.812;7.132;2022-07-12T02:43:19;16.40;74.50
4107;DHT22;21906;50.812;7.132;2022-07-12T02:45:44;16.40;74.50
4107;DHT22;21906;50.812;7.132;2022-07-12T02:48:10;16.30;74.50
4107;DHT22;21906;50.812;7.132;2022-07-12T02:50:38;16.30;74.50
4107;DHT22;21906;50.812;7.132;2022-07-12T02:53:04;16.30;74.50
4107;DHT22;21906;50.812;7.132;2022-07-12T02:55:30;16.30;74.40
4107;DHT22;21906;50.812;7.132;2022-07-12T02:57:56;16.20;74.40
4107;DHT22;21906;50.812;7.132;2022-07-12T03:00:21;16.20;74.50
4107;DHT22;21906;50.812;7.132;2022-07-12T03:02:47;16.10;74.30
4107;DHT22;21906;50.812;7.132;2022-07-12T03:05:12;16.10;74.40
4107;DHT22;21906;50.812;7.132;2022-07-12T03:07:38;16.10;74.50
4107;DHT22;21906;50.812;7.132;2022-07-12T03:10:04;16.00;74.30
4107;DHT22;21906;50.812;7.132;2022-07-12T03:12:30;16.00;74.20
4107;DHT22;21906;50.812;7.132;2022-07-12T03:14:56;16.00;74.00
4107;DHT22;21906;50.812;7.132;2022-07-12T03:17:22;16.00;74.00
4107;DHT22;21906;50.812;7.132;2022-07-12T03:19:48;16.00;74.20
4107;DHT22;21906;50.812;7.132;2022-07-12T03:22:14;15.90;74.10
4107;DHT22;21906;50.812;7.132;2022-07-12T03:24:39;15.90;73.80
4107;DHT22;21906;50.812;7.132;2022-07-12T03:27:06;15.90;73.70
4107;DHT22;21906;50.812;7.132;2022-07-12T03:29:32;15.90;73.70
4107;DHT22;21906;50.812;7.132;2022-07-12T03:31:57;15.90;73.70
4107;DHT22;21906;50.812;7.132;2022-07-12T03:34:23;15.90;73.90
4107;DHT22;21906;50.812;7.132;2022-07-12T03:36:49;15.90;74.10
4107;DHT22;21906;50.812;7.132;2022-07-12T03:39:14;15.90;74.30
4107;DHT22;21906;50.812;7.132;2022-07-12T03:41:40;15.80;74.60
4107;DHT22;21906;50.812;7.132;2022-07-12T03:44:06;15.80;74.90
4107;DHT22;21906;50.812;7.132;2022-07-12T03:46:32;15.70;75.00
4107;DHT22;21906;50.812;7.132;2022-07-12T03:49:00;15.80;75.20
4107;DHT22;21906;50.812;7.132;2022-07-12T03:51:26;15.80;75.40
4107;DHT22;21906;50.812;7.132;2022-07-12T03:53:52;15.80;75.40
4107;DHT22;21906;50.812;7.132;2022-07-12T03:56:18;15.80;75.50
4107;DHT22;21906;50.812;7.132;2022-07-12T03:59:02;15.90;75.70
4107;DHT22;21906;50.812;7.132;2022-07-12T04:01:28;15.90;75.60
4107;DHT22;21906;50.812;7.132;2022-07-12T04:03:55;15.90;75.60
4107;DHT22;21906;50.812;7.132;2022-07-12T04:06:21;15.90;75.50
4107;DHT22;21906;50.812;7.132;2022-07-12T04:08:47;15.90;75.40
4107;DHT22;21906;50.812;7.132;2022-07-12T04:11:13;15.90;75.30
4107;DHT22;21906;50.812;7.132;2022-07-12T04:13:38;15.90;75.30
4107;DHT22;21906;50.812;7.132;2022-07-12T04:16:04;15.90;75.10
4107;DHT22;21906;50.812;7.132;2022-07-12T04:18:31;16.00;75.20
4107;DHT22;21906;50.812;7.132;2022-07-12T04:20:56;16.00;75.00
4107;DHT22;21906;50.812;7.132;2022-07-12T04:23:22;16.10;75.00
4107;DHT22;21906;50.812;7.132;2022-07-12T04:25:48;16.00;75.00
4107;DHT22;21906;50.812;7.132;2022-07-12T04:28:13;16.10;75.00
4107;DHT22;21906;50.812;7.132;2022-07-12T04:30:39;16.10;75.00
4107;DHT22;21906;50.812;7.132;2022-07-12T04:33:05;16.10;74.90
4107;DHT22;21906;50.812;7.132;2022-07-12T04:35:31;16.10;74.80
4107;DHT22;21906;50.812;7.132;2022-07-12T04:37:56;16.20;74.80
4107;DHT22;21906;50.812;7.132;2022-07-12T04:40:22;16.20;74.80
4107;DHT22;21906;50.812;7.132;2022-07-12T04:42:48;16.10;74.90
4107;DHT22;21906;50.812;7.132;2022-07-12T04:45:13;16.20;74.90
4107;DHT22;21906;50.812;7.132;2022-07-12T04:47:39;16.20;75.00
4107;DHT22;21906;50.812;7.132;2022-07-12T04:50:08;16.20;74.90
4107;DHT22;21906;50.812;7.132;2022-07-12T04:52:35;16.30;74.90
4107;DHT22;21906;50.812;7.132;2022-07-12T04:55:00;16.30;74.90
4107;DHT22;21906;50.812;7.132;2022-07-12T04:57:26;16.30;74.80
4107;DHT22;21906;50.812;7.132;2022-07-12T04:59:52;16.20;75.10
4107;DHT22;21906;50.812;7.132;2022-07-12T05:02:18;16.30;75.20
4107;DHT22;21906;50.812;7.132;2022-07-12T05:04:43;16.30;75.20
4107;DHT22;21906;50.812;7.132;2022-07-12T05:07:09;16.10;75.90
4107;DHT22;21906;50.812;7.132;2022-07-12T05:09:35;16.20;75.70
4107;DHT22;21906;50.812;7.132;2022-07-12T05:12:01;16.30;75.80
4107;DHT22;21906;50.812;7.132;2022-07-12T05:14:26;16.30;75.80
4107;DHT22;21906;50.812;7.132;2022-07-12T05:16:52;16.40;75.80
4107;DHT22;21906;50.812;7.132;2022-07-12T05:19:17;16.40;75.60
4107;DHT22;21906;50.812;7.132;2022-07-12T05:21:44;16.50;75.50
4107;DHT22;21906;50.812;7.132;2022-07-12T05:24:10;16.50;75.60
4107;DHT22;21906;50.812;7.132;2022-07-12T05:26:35;16.50;75.70
4107;DHT22;21906;50.812;7.132;2022-07-12T05:29:02;16.60;75.70
4107;DHT22;21906;50.812;7.132;2022-07-12T05:31:28;16.60;75.70
4107;DHT22;21906;50.812;7.132;2022-07-12T05:33:53;16.70;75.70
4107;DHT22;21906;50.812;7.132;2022-07-12T05:36:19;16.70;75.70
4107;DHT22;21906;50.812;7.132;2022-07-12T05:38:45;16.70;75.80
4107;DHT22;21906;50.812;7.132;2022-07-12T05:41:12;16.70;76.10
4107;DHT22;21906;50.812;7.132;2022-07-12T05:43:38;16.90;75.90
4107;DHT22;21906;50.812;7.132;2022-07-12T05:46:04;16.90;75.60
4107;DHT22;21906;50.812;7.132;2022-07-12T05:48:29;16.90;76.10
4107;DHT22;21906;50.812;7.132;2022-07-12T05:50:55;16.70;76.90
4107;DHT22;21906;50.812;7.132;2022-07-12T05:53:41;16.90;76.70
4107;DHT22;21906;50.812;7.132;2022-07-12T05:56:06;16.90;76.40
4107;DHT22;21906;50.812;7.132;2022-07-12T05:58:32;17.10;76.30
4107;DHT22;21906;50.812;7.132;2022-07-12T06:00:57;17.20;76.10
4107;DHT22;21906;50.812;7.132;2022-07-12T06:03:23;17.40;75.80
4107;DHT22;21906;50.812;7.132;2022-07-12T06:05:49;17.40;75.60
4107;DHT22;21906;50.812;7.132;2022-07-12T06:08:14;17.40;75.80
4107;DHT22;21906;50.812;7.132;2022-07-12T06:10:40;17.40;76.20
4107;DHT22;21906;50.812;7.132;2022-07-12T06:13:06;17.40;76.10
4107;DHT22;21906;50.812;7.132;2022-07-12T06:15:32;17.50;75.90
4107;DHT22;21906;50.812;7.132;2022-07-12T06:17:58;17.60;75.50
4107;DHT22;21906;50.812;7.132;2022-07-12T06:20:23;17.70;75.30
4107;DHT22;21906;50.812;7.132;2022-07-12T06:22:49;17.90;75.00
4107;DHT22;21906;50.812;7.132;2022-07-12T06:25:15;17.90;74.80
4107;DHT22;21906;50.812;7.132;2022-07-12T06:27:40;18.00;74.40
4107;DHT22;21906;50.812;7.132;2022-07-12T06:30:06;18.00;74.40
4107;DHT22;21906;50.812;7.132;2022-07-12T06:32:33;18.10;74.50
4107;DHT22;21906;50.812;7.132;2022-07-12T06:34:58;18.20;74.40
4107;DHT22;21906;50.812;7.132;2022-07-12T06:37:24;18.30;74.30
4107;DHT22;21906;50.812;7.132;2022-07-12T06:39:50;18.30;74.10
4107;DHT22;21906;50.812;7.132;2022-07-12T06:42:15;18.40;73.80
4107;DHT22;21906;50.812;7.132;2022-07-12T06:44:41;18.50;73.70
4107;DHT22;21906;50.812;7.132;2022-07-12T06:47:07;18.60;73.50
4107;DHT22;21906;50.812;7.132;2022-07-12T06:49:32;18.60;73.50
4107;DHT22;21906;50.812;7.132;2022-07-12T06:51:58;18.70;73.40
4107;DHT22;21906;50.812;7.132;2022-07-12T06:54:24;18.70;73.10
4107;DHT22;21906;50.812;7.132;2022-07-12T06:56:50;18.80;73.10
4107;DHT22;21906;50.812;7.132;2022-07-12T06:59:16;18.90;73.60
4107;DHT22;21906;50.812;7.132;2022-07-12T07:01:42;19.00;73.30
4107;DHT22;21906;50.812;7.132;2022-07-12T07:04:08;19.10;73.00
4107;DHT22;21906;50.812;7.132;2022-07-12T07:06:34;19.20;72.60
4107;DHT22;21906;50.812;7.132;2022-07-12T07:08:59;19.20;72.30
4107;DHT22;21906;50.812;7.132;2022-07-12T07:11:25;19.40;72.00
4107;DHT22;21906;50.812;7.132;2022-07-12T07:13:51;19.50;71.70
4107;DHT22;21906;50.812;7.132;2022-07-12T07:16:17;19.50;71.30
4107;DHT22;21906;50.812;7.132;2022-07-12T07:18:45;19.60;71.20
4107;DHT22;21906;50.812;7.132;2022-07-12T07:21:11;19.60;71.00
4107;DHT22;21906;50.812;7.132;2022-07-12T07:23:36;19.60;71.00
4107;DHT22;21906;50.812;7.132;2022-07-12T07:26:02;19.70;70.90
4107;DHT22;21906;50.812;7.132;2022-07-12T07:28:27;19.70;71.00
4107;DHT22;21906;50.812;7.132;2022-07-12T07:30:53;19.80;70.60
4107;DHT22;21906;50.812;7.132;2022-07-12T07:33:20;19.90;70.40
4107;DHT22;21906;50.812;7.132;2022-07-12T07:35:47;19.90;70.00
4107;DHT22;21906;50.812;7.132;2022-07-12T07:38:14;19.90;69.70
4107;DHT22;21906;50.812;7.132;2022-07-12T07:40:39;20.00;69.40
4107;DHT22;21906;50.812;7.132;2022-07-12T07:43:05;20.10;69.10
4107;DHT22;21906;50.812;7.132;2022-07-12T07:45:31;20.10;68.50
4107;DHT22;21906;50.812;7.132;2022-07-12T07:47:56;20.20;68.60
4107;DHT22;21906;50.812;7.132;2022-07-12T07:50:22;20.20;68.50
4107;DHT22;21906;50.812;7.132;2022-07-12T07:52:48;20.20;68.60
4107;DHT22;21906;50.812;7.132;2022-07-12T07:55:15;20.30;68.70
4107;DHT22;21906;50.812;7.132;2022-07-12T07:57:41;20.40;68.80
4107;DHT22;21906;50.812;7.132;2022-07-12T08:00:07;20.50;68.80
4107;DHT22;21906;50.812;7.132;2022-07-12T08:02:34;20.60;69.20
4107;DHT22;21906;50.812;7.132;2022-07-12T08:05:00;20.70;68.30
4107;DHT22;21906;50.812;7.132;2022-07-12T08:07:25;20.70;67.60
4107;DHT22;21906;50.812;7.132;2022-07-12T08:09:51;20.70;68.20
4107;DHT22;21906;50.812;7.132;2022-07-12T08:12:17;20.90;68.40
4107;DHT22;21906;50.812;7.132;2022-07-12T08:14:42;20.90;68.00
4107;DHT22;21906;50.812;7.132;2022-07-12T08:17:08;21.00;67.90
4107;DHT22;21906;50.812;7.132;2022-07-12T08:19:34;21.00;67.30
4107;DHT22;21906;50.812;7.132;2022-07-12T08:21:59;21.00;67.20
4107;DHT22;21906;50.812;7.132;2022-07-12T08:24:25;21.10;67.40
4107;DHT22;21906;50.812;7.132;2022-07-12T08:26:51;21.30;67.20
4107;DHT22;21906;50.812;7.132;2022-07-12T08:29:16;21.40;67.20
4107;DHT22;21906;50.812;7.132;2022-07-12T08:31:42;21.40;66.70
4107;DHT22;21906;50.812;7.132;2022-07-12T08:34:08;21.40;65.90
4107;DHT22;21906;50.812;7.132;2022-07-12T08:36:34;21.50;65.50
4107;DHT22;21906;50.812;7.132;2022-07-12T08:39:00;21.60;65.20
4107;DHT22;21906;50.812;7.132;2022-07-12T08:41:25;21.70;65.40
4107;DHT22;21906;50.812;7.132;2022-07-12T08:43:51;21.70;63.70
4107;DHT22;21906;50.812;7.132;2022-07-12T08:46:17;21.80;62.70
4107;DHT22;21906;50.812;7.132;2022-07-12T08:48:43;21.80;62.30
4107;DHT22;21906;50.812;7.132;2022-07-12T08:51:19;21.80;62.20
4107;DHT22;21906;50.812;7.132;2022-07-12T08:53:45;21.80;62.10
4107;DHT22;21906;50.812;7.132;2022-07-12T08:56:30;21.80;62.80
4107;DHT22;21906;50.812;7.132;2022-07-12T08:59:29;22.00;63.10
4107;DHT22;21906;50.812;7.132;2022-07-12T09:01:55;22.10;61.80
4107;DHT22;21906;50.812;7.132;2022-07-12T09:04:22;22.20;63.10
4107;DHT22;21906;50.812;7.132;2022-07-12T09:06:48;22.20;61.50
4107;DHT22;21906;50.812;7.132;2022-07-12T09:09:33;22.30;61.10
4107;DHT22;21906;50.812;7.132;2022-07-12T09:11:59;22.40;59.90
4107;DHT22;21906;50.812;7.132;2022-07-12T09:14:25;22.40;59.40
4107;DHT22;21906;50.812;7.132;2022-07-12T09:17:19;22.40;59.10
4107;DHT22;21906;50.812;7.132;2022-07-12T09:19:56;22.50;59.50
4107;DHT22;21906;50.812;7.132;2022-07-12T09:22:22;22.60;58.90
4107;DHT22;21906;50.812;7.132;2022-07-12T09:24:48;22.70;57.90
4107;DHT22;21906;50.812;7.132;2022-07-12T09:27:14;22.70;57.00
4107;DHT22;21906;50.812;7.132;2022-07-12T09:29:50;22.80;56.80
4107;DHT22;21906;50.812;7.132;2022-07-12T09:32:16;22.90;56.80
4107;DHT22;21906;50.812;7.132;2022-07-12T09:35:00;22.90;56.80
4107;DHT22;21906;50.812;7.132;2022-07-12T09:37:45;22.90;58.80
4107;DHT22;21906;50.812;7.132;2022-07-12T09:40:12;23.10;56.10
4107;DHT22;21906;50.812;7.132;2022-07-12T09:42:40;23.10;55.90
4107;DHT22;21906;50.812;7.132;2022-07-12T09:45:08;23.10;56.30
4107;DHT22;21906;50.812;7.132;2022-07-12T09:47:35;23.20;57.10
4107;DHT22;21906;50.812;7.132;2022-07-12T09:50:01;23.30;55.30
4107;DHT22;21906;50.812;7.132;2022-07-12T09:52:27;23.30;55.00
4107;DHT22;21906;50.812;7.132;2022-07-12T09:54:55;23.40;54.00
4107;DHT22;21906;50.812;7.132;2022-07-12T09:57:25;23.40;53.70
4107;DHT22;21906;50.812;7.132;2022-07-12T09:59:51;23.50;53.40
4107;DHT22;21906;50.812;7.132;2022-07-12T10:02:19;23.60;53.20
4107;DHT22;21906;50.812;7.132;2022-07-12T10:04:46;23.70;53.10
4107;DHT22;21906;50.812;7.132;2022-07-12T10:07:13;23.80;53.10
4107;DHT22;21906;50.812;7.132;2022-07-12T10:09:45;24.00;53.70
4107;DHT22;21906;50.812;7.132;2022-07-12T10:12:14;24.00;52.40
4107;DHT22;21906;50.812;7.132;2022-07-12T10:14:41;24.10;51.70
4107;DHT22;21906;50.812;7.132;2022-07-12T10:17:08;24.10;51.00
4107;DHT22;21906;50.812;7.132;2022-07-12T10:19:38;24.20;51.30
4107;DHT22;21906;50.812;7.132;2022-07-12T10:22:06;24.20;51.70
4107;DHT22;21906;50.812;7.132;2022-07-12T10:26:59;24.20;48.60
4107;DHT22;21906;50.812;7.132;2022-07-12T10:29:25;24.30;49.90
4107;DHT22;21906;50.812;7.132;2022-07-12T10:31:51;24.40;48.80
4107;DHT22;21906;50.812;7.132;2022-07-12T10:34:24;24.60;48.80
4107;DHT22;21906;50.812;7.132;2022-07-12T10:39:23;24.90;48.90
4107;DHT22;21906;50.812;7.132;2022-07-12T10:42:13;24.90;48.20
4107;DHT22;21906;50.812;7.132;2022-07-12T10:44:46;25.00;47.60
4107;DHT22;21906;50.812;7.132;2022-07-12T10:47:13;25.00;48.50
4107;DHT22;21906;50.812;7.132;2022-07-12T10:49:49;25.00;47.90
4107;DHT22;21906;50.812;7.132;2022-07-12T10:52:17;25.00;48.70
4107;DHT22;21906;50.812;7.132;2022-07-12T10:57:47;25.20;48.60
4107;DHT22;21906;50.812;7.132;2022-07-12T11:00:15;25.30;47.00
4107;DHT22;21906;50.812;7.132;2022-07-12T11:02:42;25.30;45.30
4107;DHT22;21906;50.812;7.132;2022-07-12T11:05:08;25.30;46.30
4107;DHT22;21906;50.812;7.132;2022-07-12T11:07:34;25.30;46.50
4107;DHT22;21906;50.812;7.132;2022-07-12T11:10:00;25.30;47.50
4107;DHT22;21906;50.812;7.132;2022-07-12T11:12:31;25.40;47.20
4107;DHT22;21906;50.812;7.132;2022-07-12T11:15:02;25.60;47.40
4107;DHT22;21906;50.812;7.132;2022-07-12T11:17:32;25.60;48.80
4107;DHT22;21906;50.812;7.132;2022-07-12T11:20:06;25.50;49.50
4107;DHT22;21906;50.812;7.132;2022-07-12T11:22:32;25.70;48.20
4107;DHT22;21906;50.812;7.132;2022-07-12T11:24:59;25.70;47.20
4107;DHT22;21906;50.812;7.132;2022-07-12T11:27:29;25.70;46.80
4107;DHT22;21906;50.812;7.132;2022-07-12T11:29:58;25.80;46.50
4107;DHT22;21906;50.812;7.132;2022-07-12T11:32:40;25.90;45.70
4107;DHT22;21906;50.812;7.132;2022-07-12T11:35:26;26.00;48.20
4107;DHT22;21906;50.812;7.132;2022-07-12T11:37:55;26.20;46.10
4107;DHT22;21906;50.812;7.132;2022-07-12T11:40:23;26.30;46.50
4107;DHT22;21906;50.812;7.132;2022-07-12T11:42:59;26.40;46.50
4107;DHT22;21906;50.812;7.132;2022-07-12T11:45:33;26.60;44.80
4107;DHT22;21906;50.812;7.132;2022-07-12T11:48:01;26.60;42.50
4107;DHT22;21906;50.812;7.132;2022-07-12T11:50:31;26.70;44.50
4107;DHT22;21906;50.812;7.132;2022-07-12T11:52:57;26.70;45.80
4107;DHT22;21906;50.812;7.132;2022-07-12T11:55:23;26.90;45.30
4107;DHT22;21906;50.812;7.132;2022-07-12T11:57:49;26.90;43.20
4107;DHT22;21906;50.812;7.132;2022-07-12T12:00:19;27.00;41.50
4107;DHT22;21906;50.812;7.132;2022-07-12T12:02:46;27.10;42.10
4107;DHT22;21906;50.812;7.132;2022-07-12T12:05:11;27.10;42.70
4107;DHT22;21906;50.812;7.132;2022-07-12T12:07:37;27.20;43.20
4107;DHT22;21906;50.812;7.132;2022-07-12T12:10:09;27.30;41.50
4107;DHT22;21906;50.812;7.132;2022-07-12T12:12:58;27.40;42.90
4107;DHT22;21906;50.812;7.132;2022-07-12T12:15:26;27.60;42.20
4107;DHT22;21906;50.812;7.132;2022-07-12T12:20:29;27.70;42.70
4107;DHT22;21906;50.812;7.132;2022-07-12T12:22:57;27.80;43.20
4107;DHT22;21906;50.812;7.132;2022-07-12T12:25:24;27.90;43.10
4107;DHT22;21906;50.812;7.132;2022-07-12T12:28:00;27.90;40.10
4107;DHT22;21906;50.812;7.132;2022-07-12T12:30:29;28.00;41.10
4107;DHT22;21906;50.812;7.132;2022-07-12T12:32:59;28.00;41.50
4107;DHT22;21906;50.812;7.132;2022-07-12T12:35:35;28.20;42.30
4107;DHT22;21906;50.812;7.132;2022-07-12T12:38:03;28.40;39.20
4107;DHT22;21906;50.812;7.132;2022-07-12T12:40:31;28.50;41.40
4107;DHT22;21906;50.812;7.132;2022-07-12T12:43:11;28.60;40.60
4107;DHT22;21906;50.812;7.132;2022-07-12T12:45:51;28.80;39.70
4107;DHT22;21906;50.812;7.132;2022-07-12T12:48:27;28.90;38.30
4107;DHT22;21906;50.812;7.132;2022-07-12T12:51:06;28.90;38.90
4107;DHT22;21906;50.812;7.132;2022-07-12T12:53:33;28.90;40.00
4107;DHT22;21906;50.812;7.132;2022-07-12T12:55:59;28.90;37.00
4107;DHT22;21906;50.812;7.132;2022-07-12T12:58:26;28.80;38.60
4107;DHT22;21906;50.812;7.132;2022-07-12T13:00:54;28.90;37.10
4107;DHT22;21906;50.812;7.132;2022-07-12T13:03:21;28.90;36.20
4107;DHT22;21906;50.812;7.132;2022-07-12T13:05:49;28.90;38.10
4107;DHT22;21906;50.812;7.132;2022-07-12T13:08:15;28.90;36.00
4107;DHT22;21906;50.812;7.132;2022-07-12T13:10:43;28.80;36.30
4107;DHT22;21906;50.812;7.132;2022-07-12T13:13:10;28.90;37.60
4107;DHT22;21906;50.812;7.132;2022-07-12T13:15:36;29.00;35.90
4107;DHT22;21906;50.812;7.132;2022-07-12T13:18:04;29.20;35.20
4107;DHT22;21906;50.812;7.132;2022-07-12T13:20:30;29.10;35.60
4107;DHT22;21906;50.812;7.132;2022-07-12T13:22:56;29.30;35.90
4107;DHT22;21906;50.812;7.132;2022-07-12T13:25:23;29.40;35.00
4107;DHT22;21906;50.812;7.132;2022-07-12T13:27:49;29.40;34.90
4107;DHT22;21906;50.812;7.132;2022-07-12T13:30:16;29.30;35.40
4107;DHT22;21906;50.812;7.132;2022-07-12T13:32:42;29.30;34.40
4107;DHT22;21906;50.812;7.132;2022-07-12T13:35:10;29.30;36.00
4107;DHT22;21906;50.812;7.132;2022-07-12T13:37:38;29.40;36.90
4107;DHT22;21906;50.812;7.132;2022-07-12T13:40:04;29.70;36.60
4107;DHT22;21906;50.812;7.132;2022-07-12T13:45:03;29.90;37.00
4107;DHT22;21906;50.812;7.132;2022-07-12T13:47:28;30.10;35.20
4107;DHT22;21906;50.812;7.132;2022-07-12T13:49:55;30.10;34.40
4107;DHT22;21906;50.812;7.132;2022-07-12T13:52:20;30.10;36.70
4107;DHT22;21906;50.812;7.132;2022-07-12T13:54:46;30.30;36.20
4107;DHT22;21906;50.812;7.132;2022-07-12T13:57:12;30.40;34.30
4107;DHT22;21906;50.812;7.132;2022-07-12T13:59:38;30.70;33.50
4107;DHT22;21906;50.812;7.132;2022-07-12T14:02:04;30.70;34.20
4107;DHT22;21906;50.812;7.132;2022-07-12T14:04:30;30.70;34.70
4107;DHT22;21906;50.812;7.132;2022-07-12T14:06:56;30.80;32.20
4107;DHT22;21906;50.812;7.132;2022-07-12T14:09:23;30.80;32.40
4107;DHT22;21906;50.812;7.132;2022-07-12T14:11:48;30.90;32.80
4107;DHT22;21906;50.812;7.132;2022-07-12T14:14:14;31.00;33.00
4107;DHT22;21906;50.812;7.132;2022-07-12T14:16:40;31.00;33.70
4107;DHT22;21906;50.812;7.132;2022-07-12T14:19:06;31.20;32.70
4107;DHT22;21906;50.812;7.132;2022-07-12T14:21:31;31.30;32.20
4107;DHT22;21906;50.812;7.132;2022-07-12T14:23:58;31.20;33.50
4107;DHT22;21906;50.812;7.132;2022-07-12T14:26:27;31.30;33.20
4107;DHT22;21906;50.812;7.132;2022-07-12T14:28:53;31.50;32.20
4107;DHT22;21906;50.812;7.132;2022-07-12T14:31:18;31.80;32.90
4107;DHT22;21906;50.812;7.132;2022-07-12T14:33:44;31.90;31.70
4107;DHT22;21906;50.812;7.132;2022-07-12T14:36:10;31.90;29.80
4107;DHT22;21906;50.812;7.132;2022-07-12T14:38:35;32.00;29.60
4107;DHT22;21906;50.812;7.132;2022-07-12T14:41:01;31.90;30.70
4107;DHT22;21906;50.812;7.132;2022-07-12T14:43:27;31.90;31.00
4107;DHT22;21906;50.812;7.132;2022-07-12T14:45:53;32.00;32.30
4107;DHT22;21906;50.812;7.132;2022-07-12T14:48:19;32.40;31.50
4107;DHT22;21906;50.812;7.132;2022-07-12T14:50:44;32.70;30.00
4107;DHT22;21906;50.812;7.132;2022-07-12T14:53:10;32.80;28.90
4107;DHT22;21906;50.812;7.132;2022-07-12T14:55:36;32.90;29.50
4107;DHT22;21906;50.812;7.132;2022-07-12T14:58:02;33.00;27.70
4107;DHT22;21906;50.812;7.132;2022-07-12T15:00:28;33.20;26.70
4107;DHT22;21906;50.812;7.132;2022-07-12T15:02:54;33.30;26.50
4107;DHT22;21906;50.812;7.132;2022-07-12T15:05:25;33.00;28.30
4107;DHT22;21906;50.812;7.132;2022-07-12T15:07:51;33.00;27.30
4107;DHT22;21906;50.812;7.132;2022-07-12T15:10:17;33.00;27.30
4107;DHT22;21906;50.812;7.132;2022-07-12T15:12:43;32.90;26.50
4107;DHT22;21906;50.812;7.132;2022-07-12T15:15:09;32.90;26.30
4107;DHT22;21906;50.812;7.132;2022-07-12T15:17:35;33.20;25.30
4107;DHT22;21906;50.812;7.132;2022-07-12T15:20:02;33.30;25.00
4107;DHT22;21906;50.812;7.132;2022-07-12T15:22:28;33.40;26.70
4107;DHT22;21906;50.812;7.132;2022-07-12T15:24:53;33.40;26.20
4107;DHT22;21906;50.812;7.132;2022-07-12T15:27:19;34.00;26.70
4107;DHT22;21906;50.812;7.132;2022-07-12T15:29:45;34.40;25.30
4107;DHT22;21906;50.812;7.132;2022-07-12T15:32:13;34.40;25.30
4107;DHT22;21906;50.812;7.132;2022-07-12T15:34:39;34.60;27.30
4107;DHT22;21906;50.812;7.132;2022-07-12T15:37:04;34.70;26.90
4107;DHT22;21906;50.812;7.132;2022-07-12T15:39:30;34.40;26.50
4107;DHT22;21906;50.812;7.132;2022-07-12T15:41:56;34.30;27.00
4107;DHT22;21906;50.812;7.132;2022-07-12T15:44:21;34.60;26.60
4107;DHT22;21906;50.812;7.132;2022-07-12T15:46:47;35.20;26.60
4107;DHT22;21906;50.812;7.132;2022-07-12T15:49:13;36.00;25.30
4107;DHT22;21906;50.812;7.132;2022-07-12T15:51:39;36.50;24.60
4107;DHT22;21906;50.812;7.132;2022-07-12T15:54:23;37.80;24.20
4107;DHT22;21906;50.812;7.132;2022-07-12T15:56:49;38.10;22.10
4107;DHT22;21906;50.812;7.132;2022-07-12T15:59:15;37.80;22.70
4107;DHT22;21906;50.812;7.132;2022-07-12T16:01:42;37.00;23.20